sensor_id;sensor_type;location;lat;lon;timestamp;P1;durP1;ratioP1;P2;durP2;ratioP2
19396;SDS011;9834;48.076;11.878;2023-03-01T00:00:28;19.17;;;10.80;;
19396;SDS011;9834;48.076;11.878;2023-03-01T00:02:55;17.80;;;10.67;;
19396;SDS011;9834;48.076;11.878;2023-03-01T00:05:23;14.13;;;9.90;;
19396;SDS011;9834;48.076;11.878;2023-03-01T00:07:52;17.10;;;11.83;;
19396;SDS011;9834;48.076;11.878;2023-03-01T00:10:19;15.13;;;9.47;;
19396;SDS011;9834;48.076;11.878;2023-03-01T00:12:47;18.40;;;10.17;;
19396;SDS011;9834;48.076;11.878;2023-03-01T00:15:14;17.33;;;10.80;;
19396;SDS011;9834;48.076;11.878;2023-03-01T00:17:43;13.70;;;9.57;;
19396;SDS011;9834;48.076;11.878;2023-03-01T00:20:11;18.47;;;10.50;;
19396;SDS011;9834;48.076;11.878;2023-03-01T00:22:39;15.20;;;10.10;;
19396;SDS011;9834;48.076;11.878;2023-03-01T00:25:07;16.20;;;9.93;;
19396;SDS011;9834;48.076;11.878;2023-03-01T00:27:34;16.07;;;9.93;;
19396;SDS011;9834;48.076;11.878;2023-03-01T00:30:02;15.30;;;9.63;;
19396;SDS011;9834;48.076;11.878;2023-03-01T00:32:30;18.53;;;10.03;;
19396;SDS011;9834;48.076;11.878;2023-03-01T00:34:59;14.47;;;9.97;;
19396;SDS011;9834;48.076;11.878;2023-03-01T00:37:26;11.83;;;8.37;;
19396;SDS011;9834;48.076;11.878;2023-03-01T00:39:54;16.13;;;10.90;;
19396;SDS011;9834;48.076;11.878;2023-03-01T00:42:21;14.63;;;9.60;;
19396;SDS011;9834;48.076;11.878;2023-03-01T00:44:49;17.97;;;10.87;;
19396;SDS011;9834;48.076;11.878;2023-03-01T00:47:16;14.87;;;9.43;;
19396;SDS011;9834;48.076;11.878;2023-03-01T00:49:43;15.70;;;9.97;;
19396;SDS011;9834;48.076;11.878;2023-03-01T00:52:12;24.07;;;11.27;;
19396;SDS011;9834;48.076;11.878;2023-03-01T00:54:40;15.63;;;10.03;;
19396;SDS011;9834;48.076;11.878;2023-03-01T00:57:07;22.40;;;10.30;;
19396;SDS011;9834;48.076;11.878;2023-03-01T00:59:34;16.40;;;10.43;;
19396;SDS011;9834;48.076;11.878;2023-03-01T01:02:02;15.27;;;9.00;;
19396;SDS011;9834;48.076;11.878;2023-03-01T01:04:29;15.37;;;9.50;;
19396;SDS011;9834;48.076;11.878;2023-03-01T01:06:57;18.57;;;10.63;;
19396;SDS011;9834;48.076;11.878;2023-03-01T01:09:26;20.23;;;10.40;;
19396;SDS011;9834;48.076;11.878;2023-03-01T01:11:53;15.93;;;9.40;;
19396;SDS011;9834;48.076;11.878;2023-03-01T01:14:21;14.27;;;9.33;;
19396;SDS011;9834;48.076;11.878;2023-03-01T01:16:48;17.80;;;10.60;;
19396;SDS011;9834;48.076;11.878;2023-03-01T01:19:16;14.50;;;9.93;;
19396;SDS011;9834;48.076;11.878;2023-03-01T01:21:43;18.80;;;12.10;;
19396;SDS011;9834;48.076;11.878;2023-03-01T01:24:11;14.57;;;9.90;;
19396;SDS011;9834;48.076;11.878;2023-03-01T01:26:40;13.40;;;10.23;;
19396;SDS011;9834;48.076;11.878;2023-03-01T01:29:08;18.63;;;10.83;;
19396;SDS011;9834;48.076;11.878;2023-03-01T01:31:37;14.23;;;9.20;;
19396;SDS011;9834;48.076;11.878;2023-03-01T01:34:07;15.87;;;10.70;;
19396;SDS011;9834;48.076;11.878;2023-03-01T01:36:38;14.80;;;10.47;;
19396;SDS011;9834;48.076;11.878;2023-03-01T01:39:06;15.20;;;10.40;;
19396;SDS011;9834;48.076;11.878;2023-03-01T01:41:40;17.13;;;11.23;;
19396;SDS011;9834;48.076;11.878;2023-03-01T01:44:12;15.93;;;9.87;;
19396;SDS011;9834;48.076;11.878;2023-03-01T01:46:42;21.17;;;11.80;;
19396;SDS011;9834;48.076;11.878;2023-03-01T01:49:17;13.80;;;9.90;;
19396;SDS011;9834;48.076;11.878;2023-03-01T01:51:53;15.60;;;10.17;;
19396;SDS011;9834;48.076;11.878;2023-03-01T01:54:27;13.27;;;9.70;;
19396;SDS011;9834;48.076;11.878;2023-03-01T01:57:04;14.97;;;10.37;;
19396;SDS011;9834;48.076;11.878;2023-03-01T01:59:35;17.03;;;10.93;;
19396;SDS011;9834;48.076;11.878;2023-03-01T02:02:04;17.13;;;10.57;;
19396;SDS011;9834;48.076;11.878;2023-03-01T02:04:32;16.77;;;10.67;;
19396;SDS011;9834;48.076;11.878;2023-03-01T02:07:01;18.80;;;11.00;;
19396;SDS011;9834;48.076;11.878;2023-03-01T02:09:33;16.73;;;10.13;;
19396;SDS011;9834;48.076;11.878;2023-03-01T02:12:01;13.33;;;9.87;;
19396;SDS011;9834;48.076;11.878;2023-03-01T02:14:32;14.97;;;9.60;;
19396;SDS011;9834;48.076;11.878;2023-03-01T02:16:59;17.97;;;11.30;;
19396;SDS011;9834;48.076;11.878;2023-03-01T02:19:30;12.07;;;8.80;;
19396;SDS011;9834;48.076;11.878;2023-03-01T02:22:08;13.40;;;9.03;;
19396;SDS011;9834;48.076;11.878;2023-03-01T02:24:45;14.50;;;10.03;;
19396;SDS011;9834;48.076;11.878;2023-03-01T02:27:22;16.47;;;9.47;;
19396;SDS011;9834;48.076;11.878;2023-03-01T02:29:56;16.37;;;11.03;;
19396;SDS011;9834;48.076;11.878;2023-03-01T02:32:24;14.97;;;9.23;;
19396;SDS011;9834;48.076;11.878;2023-03-01T02:34:51;16.27;;;10.23;;
19396;SDS011;9834;48.076;11.878;2023-03-01T02:37:20;17.70;;;10.73;;
19396;SDS011;9834;48.076;11.878;2023-03-01T02:39:50;15.50;;;10.20;;
19396;SDS011;9834;48.076;11.878;2023-03-01T02:42:23;15.73;;;10.23;;
19396;SDS011;9834;48.076;11.878;2023-03-01T02:44:54;16.47;;;9.67;;
19396;SDS011;9834;48.076;11.878;2023-03-01T02:47:23;23.00;;;10.63;;
19396;SDS011;9834;48.076;11.878;2023-03-01T02:49:51;18.13;;;10.87;;
19396;SDS011;9834;48.076;11.878;2023-03-01T02:52:27;22.87;;;11.93;;
19396;SDS011;9834;48.076;11.878;2023-03-01T02:55:04;12.33;;;9.43;;
19396;SDS011;9834;48.076;11.878;2023-03-01T02:57:35;20.47;;;10.87;;
19396;SDS011;9834;48.076;11.878;2023-03-01T03:00:07;13.40;;;9.87;;
19396;SDS011;9834;48.076;11.878;2023-03-01T03:02:44;17.73;;;11.23;;
19396;SDS011;9834;48.076;11.878;2023-03-01T03:05:14;17.47;;;10.47;;
19396;SDS011;9834;48.076;11.878;2023-03-01T03:07:44;16.27;;;10.67;;
19396;SDS011;9834;48.076;11.878;2023-03-01T03:10:13;15.37;;;10.53;;
19396;SDS011;9834;48.076;11.878;2023-03-01T03:12:47;15.30;;;10.67;;
19396;SDS011;9834;48.076;11.878;2023-03-01T03:15:18;14.80;;;10.50;;
19396;SDS011;9834;48.076;11.878;2023-03-01T03:17:46;16.10;;;11.07;;
19396;SDS011;9834;48.076;11.878;2023-03-01T03:20:14;17.23;;;11.17;;
19396;SDS011;9834;48.076;11.878;2023-03-01T03:22:45;21.23;;;11.40;;
19396;SDS011;9834;48.076;11.878;2023-03-01T03:25:14;17.63;;;11.10;;
19396;SDS011;9834;48.076;11.878;2023-03-01T03:27:43;20.37;;;11.87;;
19396;SDS011;9834;48.076;11.878;2023-03-01T03:30:12;13.20;;;9.10;;
19396;SDS011;9834;48.076;11.878;2023-03-01T03:32:43;16.07;;;11.07;;
19396;SDS011;9834;48.076;11.878;2023-03-01T03:35:17;14.80;;;10.27;;
19396;SDS011;9834;48.076;11.878;2023-03-01T03:37:45;14.93;;;9.20;;
19396;SDS011;9834;48.076;11.878;2023-03-01T03:40:29;16.53;;;10.30;;
19396;SDS011;9834;48.076;11.878;2023-03-01T03:42:58;13.90;;;9.67;;
19396;SDS011;9834;48.076;11.878;2023-03-01T03:45:25;14.97;;;11.77;;
19396;SDS011;9834;48.076;11.878;2023-03-01T03:47:54;14.30;;;10.50;;
19396;SDS011;9834;48.076;11.878;2023-03-01T03:50:21;13.43;;;9.67;;
19396;SDS011;9834;48.076;11.878;2023-03-01T03:52:49;17.70;;;11.00;;
19396;SDS011;9834;48.076;11.878;2023-03-01T03:55:17;15.27;;;10.10;;
19396;SDS011;9834;48.076;11.878;2023-03-01T03:57:45;14.57;;;10.03;;
19396;SDS011;9834;48.076;11.878;2023-03-01T04:00:30;18.80;;;10.57;;
19396;SDS011;9834;48.076;11.878;2023-03-01T04:02:59;20.80;;;10.53;;
19396;SDS011;9834;48.076;11.878;2023-03-01T04:05:27;17.03;;;11.07;;
19396;SDS011;9834;48.076;11.878;2023-03-01T04:07:55;23.20;;;12.17;;
19396;SDS011;9834;48.076;11.878;2023-03-01T04:10:27;18.90;;;10.47;;
19396;SDS011;9834;48.076;11.878;2023-03-01T04:12:56;15.03;;;10.73;;
19396;SDS011;9834;48.076;11.878;2023-03-01T04:15:25;17.70;;;11.40;;
19396;SDS011;9834;48.076;11.878;2023-03-01T04:17:53;17.60;;;10.93;;
19396;SDS011;9834;48.076;11.878;2023-03-01T04:20:23;22.43;;;12.23;;
19396;SDS011;9834;48.076;11.878;2023-03-01T04:22:56;16.03;;;11.17;;
19396;SDS011;9834;48.076;11.878;2023-03-01T04:25:25;16.83;;;10.33;;
19396;SDS011;9834;48.076;11.878;2023-03-01T04:27:53;17.63;;;11.07;;
19396;SDS011;9834;48.076;11.878;2023-03-01T04:30:20;18.57;;;12.17;;
19396;SDS011;9834;48.076;11.878;2023-03-01T04:32:50;18.63;;;10.73;;
19396;SDS011;9834;48.076;11.878;2023-03-01T04:35:17;16.70;;;10.93;;
19396;SDS011;9834;48.076;11.878;2023-03-01T04:37:47;20.10;;;11.37;;
19396;SDS011;9834;48.076;11.878;2023-03-01T04:40:16;16.77;;;10.67;;
19396;SDS011;9834;48.076;11.878;2023-03-01T04:42:43;16.40;;;11.33;;
19396;SDS011;9834;48.076;11.878;2023-03-01T04:45:12;19.27;;;12.13;;
19396;SDS011;9834;48.076;11.878;2023-03-01T04:47:40;16.40;;;10.70;;
19396;SDS011;9834;48.076;11.878;2023-03-01T04:50:10;18.07;;;12.20;;
19396;SDS011;9834;48.076;11.878;2023-03-01T04:52:38;17.17;;;11.13;;
19396;SDS011;9834;48.076;11.878;2023-03-01T04:55:08;20.57;;;11.90;;
19396;SDS011;9834;48.076;11.878;2023-03-01T04:57:36;20.27;;;12.00;;
19396;SDS011;9834;48.076;11.878;2023-03-01T05:00:04;15.30;;;10.80;;
19396;SDS011;9834;48.076;11.878;2023-03-01T05:02:45;15.23;;;11.63;;
19396;SDS011;9834;48.076;11.878;2023-03-01T05:05:18;18.60;;;11.73;;
19396;SDS011;9834;48.076;11.878;2023-03-01T05:07:51;20.20;;;12.07;;
19396;SDS011;9834;48.076;11.878;2023-03-01T05:10:20;17.83;;;11.53;;
19396;SDS011;9834;48.076;11.878;2023-03-01T05:12:48;22.03;;;12.17;;
19396;SDS011;9834;48.076;11.878;2023-03-01T05:15:17;17.20;;;11.60;;
19396;SDS011;9834;48.076;11.878;2023-03-01T05:17:47;16.83;;;10.77;;
19396;SDS011;9834;48.076;11.878;2023-03-01T05:20:15;20.90;;;11.23;;
19396;SDS011;9834;48.076;11.878;2023-03-01T05:22:42;17.37;;;11.90;;
19396;SDS011;9834;48.076;11.878;2023-03-01T05:25:10;18.43;;;11.70;;
19396;SDS011;9834;48.076;11.878;2023-03-01T05:27:40;19.17;;;11.90;;
19396;SDS011;9834;48.076;11.878;2023-03-01T05:30:08;16.93;;;11.43;;
19396;SDS011;9834;48.076;11.878;2023-03-01T05:32:40;18.33;;;12.53;;
19396;SDS011;9834;48.076;11.878;2023-03-01T05:35:10;17.97;;;10.90;;
19396;SDS011;9834;48.076;11.878;2023-03-01T05:37:42;18.60;;;11.67;;
19396;SDS011;9834;48.076;11.878;2023-03-01T05:40:11;19.97;;;11.90;;
19396;SDS011;9834;48.076;11.878;2023-03-01T05:42:44;15.93;;;10.70;;
19396;SDS011;9834;48.076;11.878;2023-03-01T05:45:12;15.50;;;11.33;;
19396;SDS011;9834;48.076;11.878;2023-03-01T05:47:40;16.10;;;10.83;;
19396;SDS011;9834;48.076;11.878;2023-03-01T05:50:13;22.30;;;11.77;;
19396;SDS011;9834;48.076;11.878;2023-03-01T05:52:44;16.80;;;11.00;;
19396;SDS011;9834;48.076;11.878;2023-03-01T05:55:13;18.13;;;11.30;;
19396;SDS011;9834;48.076;11.878;2023-03-01T05:57:41;20.80;;;12.73;;
19396;SDS011;9834;48.076;11.878;2023-03-01T06:00:11;20.63;;;11.20;;
19396;SDS011;9834;48.076;11.878;2023-03-01T06:02:40;23.17;;;12.40;;
19396;SDS011;9834;48.076;11.878;2023-03-01T06:05:08;21.70;;;12.43;;
19396;SDS011;9834;48.076;11.878;2023-03-01T06:07:37;17.17;;;11.60;;
19396;SDS011;9834;48.076;11.878;2023-03-01T06:10:05;21.47;;;12.17;;
19396;SDS011;9834;48.076;11.878;2023-03-01T06:12:34;20.77;;;12.37;;
19396;SDS011;9834;48.076;11.878;2023-03-01T06:15:04;17.93;;;12.50;;
19396;SDS011;9834;48.076;11.878;2023-03-01T06:17:35;21.07;;;12.13;;
19396;SDS011;9834;48.076;11.878;2023-03-01T06:20:03;24.30;;;12.93;;
19396;SDS011;9834;48.076;11.878;2023-03-01T06:22:31;22.53;;;13.47;;
19396;SDS011;9834;48.076;11.878;2023-03-01T06:24:58;19.80;;;11.70;;
19396;SDS011;9834;48.076;11.878;2023-03-01T06:27:25;20.00;;;11.93;;
19396;SDS011;9834;48.076;11.878;2023-03-01T06:29:52;23.27;;;12.40;;
19396;SDS011;9834;48.076;11.878;2023-03-01T06:32:21;16.87;;;12.40;;
19396;SDS011;9834;48.076;11.878;2023-03-01T06:34:49;19.30;;;11.93;;
19396;SDS011;9834;48.076;11.878;2023-03-01T06:37:16;19.37;;;11.93;;
19396;SDS011;9834;48.076;11.878;2023-03-01T06:39:44;20.33;;;12.20;;
19396;SDS011;9834;48.076;11.878;2023-03-01T06:42:11;22.37;;;12.43;;
19396;SDS011;9834;48.076;11.878;2023-03-01T06:44:38;19.50;;;12.27;;
19396;SDS011;9834;48.076;11.878;2023-03-01T06:47:05;17.07;;;10.73;;
19396;SDS011;9834;48.076;11.878;2023-03-01T06:49:34;20.17;;;11.47;;
19396;SDS011;9834;48.076;11.878;2023-03-01T06:52:01;16.50;;;10.70;;
19396;SDS011;9834;48.076;11.878;2023-03-01T06:54:28;22.43;;;11.73;;
19396;SDS011;9834;48.076;11.878;2023-03-01T06:56:55;18.10;;;12.43;;
19396;SDS011;9834;48.076;11.878;2023-03-01T06:59:22;15.10;;;11.23;;
19396;SDS011;9834;48.076;11.878;2023-03-01T07:01:49;20.50;;;12.60;;
19396;SDS011;9834;48.076;11.878;2023-03-01T07:04:17;18.83;;;12.00;;
19396;SDS011;9834;48.076;11.878;2023-03-01T07:06:45;21.37;;;11.40;;
19396;SDS011;9834;48.076;11.878;2023-03-01T07:09:19;18.87;;;12.47;;
19396;SDS011;9834;48.076;11.878;2023-03-01T07:11:47;22.73;;;13.03;;
19396;SDS011;9834;48.076;11.878;2023-03-01T07:14:13;17.73;;;11.70;;
19396;SDS011;9834;48.076;11.878;2023-03-01T07:16:41;18.27;;;12.20;;
19396;SDS011;9834;48.076;11.878;2023-03-01T07:19:08;19.07;;;12.23;;
19396;SDS011;9834;48.076;11.878;2023-03-01T07:21:35;24.17;;;13.53;;
19396;SDS011;9834;48.076;11.878;2023-03-01T07:24:05;20.37;;;13.13;;
19396;SDS011;9834;48.076;11.878;2023-03-01T07:26:33;21.17;;;12.80;;
19396;SDS011;9834;48.076;11.878;2023-03-01T07:29:01;16.10;;;11.33;;
19396;SDS011;9834;48.076;11.878;2023-03-01T07:31:29;17.93;;;12.37;;
19396;SDS011;9834;48.076;11.878;2023-03-01T07:33:56;17.27;;;11.60;;
19396;SDS011;9834;48.076;11.878;2023-03-01T07:36:23;21.90;;;12.03;;
19396;SDS011;9834;48.076;11.878;2023-03-01T07:38:51;17.93;;;12.27;;
19396;SDS011;9834;48.076;11.878;2023-03-01T07:41:19;19.37;;;10.67;;
19396;SDS011;9834;48.076;11.878;2023-03-01T07:43:47;19.07;;;12.27;;
19396;SDS011;9834;48.076;11.878;2023-03-01T07:46:14;20.57;;;12.47;;
19396;SDS011;9834;48.076;11.878;2023-03-01T07:48:43;19.80;;;11.83;;
19396;SDS011;9834;48.076;11.878;2023-03-01T07:51:10;22.30;;;13.00;;
19396;SDS011;9834;48.076;11.878;2023-03-01T07:53:38;17.23;;;11.47;;
19396;SDS011;9834;48.076;11.878;2023-03-01T07:56:06;17.60;;;11.93;;
19396;SDS011;9834;48.076;11.878;2023-03-01T07:58:36;21.47;;;12.77;;
19396;SDS011;9834;48.076;11.878;2023-03-01T08:01:06;22.40;;;12.03;;
19396;SDS011;9834;48.076;11.878;2023-03-01T08:03:35;24.63;;;12.93;;
19396;SDS011;9834;48.076;11.878;2023-03-01T08:06:03;19.40;;;11.90;;
19396;SDS011;9834;48.076;11.878;2023-03-01T08:08:32;16.93;;;11.33;;
19396;SDS011;9834;48.076;11.878;2023-03-01T08:11:00;16.57;;;10.47;;
19396;SDS011;9834;48.076;11.878;2023-03-01T08:13:28;20.83;;;12.37;;
19396;SDS011;9834;48.076;11.878;2023-03-01T08:16:01;16.63;;;11.63;;
19396;SDS011;9834;48.076;11.878;2023-03-01T08:18:29;20.77;;;11.23;;
19396;SDS011;9834;48.076;11.878;2023-03-01T08:21:00;17.97;;;11.50;;
19396;SDS011;9834;48.076;11.878;2023-03-01T08:23:29;18.90;;;12.10;;
19396;SDS011;9834;48.076;11.878;2023-03-01T08:26:02;18.07;;;12.00;;
19396;SDS011;9834;48.076;11.878;2023-03-01T08:28:31;24.33;;;11.40;;
19396;SDS011;9834;48.076;11.878;2023-03-01T08:31:00;19.33;;;12.17;;
19396;SDS011;9834;48.076;11.878;2023-03-01T08:33:28;20.27;;;12.77;;
19396;SDS011;9834;48.076;11.878;2023-03-01T08:36:02;17.17;;;11.20;;
19396;SDS011;9834;48.076;11.878;2023-03-01T08:38:29;18.80;;;12.53;;
19396;SDS011;9834;48.076;11.878;2023-03-01T08:40:59;22.13;;;11.40;;
19396;SDS011;9834;48.076;11.878;2023-03-01T08:43:26;15.10;;;10.47;;
19396;SDS011;9834;48.076;11.878;2023-03-01T08:45:54;18.17;;;11.67;;
19396;SDS011;9834;48.076;11.878;2023-03-01T08:48:22;22.97;;;12.33;;
19396;SDS011;9834;48.076;11.878;2023-03-01T08:50:50;17.10;;;12.00;;
19396;SDS011;9834;48.076;11.878;2023-03-01T08:53:17;25.30;;;12.60;;
19396;SDS011;9834;48.076;11.878;2023-03-01T08:55:45;15.73;;;11.13;;
19396;SDS011;9834;48.076;11.878;2023-03-01T08:58:12;18.80;;;11.30;;
19396;SDS011;9834;48.076;11.878;2023-03-01T09:00:40;24.37;;;12.50;;
19396;SDS011;9834;48.076;11.878;2023-03-01T09:03:07;16.60;;;11.00;;
19396;SDS011;9834;48.076;11.878;2023-03-01T09:05:36;22.30;;;11.87;;
19396;SDS011;9834;48.076;11.878;2023-03-01T09:08:03;18.77;;;11.33;;
19396;SDS011;9834;48.076;11.878;2023-03-01T09:10:36;15.23;;;10.80;;
19396;SDS011;9834;48.076;11.878;2023-03-01T09:13:04;19.47;;;11.93;;
19396;SDS011;9834;48.076;11.878;2023-03-01T09:15:32;18.00;;;10.73;;
19396;SDS011;9834;48.076;11.878;2023-03-01T09:18:00;18.70;;;10.73;;
19396;SDS011;9834;48.076;11.878;2023-03-01T09:20:27;20.50;;;12.07;;
19396;SDS011;9834;48.076;11.878;2023-03-01T09:22:57;19.43;;;11.53;;
19396;SDS011;9834;48.076;11.878;2023-03-01T09:25:25;16.37;;;10.47;;
19396;SDS011;9834;48.076;11.878;2023-03-01T09:27:53;20.27;;;12.57;;
19396;SDS011;9834;48.076;11.878;2023-03-01T09:30:21;18.90;;;12.30;;
19396;SDS011;9834;48.076;11.878;2023-03-01T09:32:49;22.10;;;11.77;;
19396;SDS011;9834;48.076;11.878;2023-03-01T09:35:17;16.83;;;11.13;;
19396;SDS011;9834;48.076;11.878;2023-03-01T09:37:45;15.27;;;11.97;;
19396;SDS011;9834;48.076;11.878;2023-03-01T09:40:17;19.27;;;12.00;;
19396;SDS011;9834;48.076;11.878;2023-03-01T09:42:48;16.43;;;10.83;;
19396;SDS011;9834;48.076;11.878;2023-03-01T09:45:28;20.43;;;10.97;;
19396;SDS011;9834;48.076;11.878;2023-03-01T09:47:59;19.57;;;11.73;;
19396;SDS011;9834;48.076;11.878;2023-03-01T09:50:30;20.17;;;11.47;;
19396;SDS011;9834;48.076;11.878;2023-03-01T09:53:02;15.27;;;10.30;;
19396;SDS011;9834;48.076;11.878;2023-03-01T09:55:37;21.50;;;12.47;;
19396;SDS011;9834;48.076;11.878;2023-03-01T09:58:15;16.50;;;10.13;;
19396;SDS011;9834;48.076;11.878;2023-03-01T10:00:58;17.20;;;10.57;;
19396;SDS011;9834;48.076;11.878;2023-03-01T10:03:31;18.90;;;10.53;;
19396;SDS011;9834;48.076;11.878;2023-03-01T10:06:04;17.07;;;10.63;;
19396;SDS011;9834;48.076;11.878;2023-03-01T10:08:38;22.93;;;10.03;;
19396;SDS011;9834;48.076;11.878;2023-03-01T10:11:17;18.90;;;11.03;;
19396;SDS011;9834;48.076;11.878;2023-03-01T10:13:49;17.73;;;11.40;;
19396;SDS011;9834;48.076;11.878;2023-03-01T10:16:23;19.80;;;11.77;;
19396;SDS011;9834;48.076;11.878;2023-03-01T10:18:55;18.10;;;12.13;;
19396;SDS011;9834;48.076;11.878;2023-03-01T10:21:27;21.63;;;12.67;;
19396;SDS011;9834;48.076;11.878;2023-03-01T10:23:57;16.17;;;10.60;;
19396;SDS011;9834;48.076;11.878;2023-03-01T10:26:47;21.60;;;10.80;;
19396;SDS011;9834;48.076;11.878;2023-03-01T10:29:20;13.13;;;10.00;;
19396;SDS011;9834;48.076;11.878;2023-03-01T10:31:52;16.93;;;11.30;;
19396;SDS011;9834;48.076;11.878;2023-03-01T10:34:25;13.40;;;10.53;;
19396;SDS011;9834;48.076;11.878;2023-03-01T10:36:56;18.70;;;12.17;;
19396;SDS011;9834;48.076;11.878;2023-03-01T10:39:25;18.80;;;12.03;;
19396;SDS011;9834;48.076;11.878;2023-03-01T10:41:58;16.43;;;12.10;;
19396;SDS011;9834;48.076;11.878;2023-03-01T10:44:38;19.17;;;11.37;;
19396;SDS011;9834;48.076;11.878;2023-03-01T10:47:17;16.00;;;10.70;;
19396;SDS011;9834;48.076;11.878;2023-03-01T10:49:53;20.50;;;11.53;;
19396;SDS011;9834;48.076;11.878;2023-03-01T10:52:30;16.33;;;10.77;;
19396;SDS011;9834;48.076;11.878;2023-03-01T10:54:59;18.47;;;10.20;;
19396;SDS011;9834;48.076;11.878;2023-03-01T10:57:33;13.83;;;9.83;;
19396;SDS011;9834;48.076;11.878;2023-03-01T11:00:14;15.30;;;10.57;;
19396;SDS011;9834;48.076;11.878;2023-03-01T11:02:47;18.63;;;10.63;;
19396;SDS011;9834;48.076;11.878;2023-03-01T11:05:17;16.37;;;11.10;;
19396;SDS011;9834;48.076;11.878;2023-03-01T11:07:49;15.37;;;10.50;;
19396;SDS011;9834;48.076;11.878;2023-03-01T11:10:20;19.53;;;11.83;;
19396;SDS011;9834;48.076;11.878;2023-03-01T11:12:50;21.17;;;11.10;;
19396;SDS011;9834;48.076;11.878;2023-03-01T11:15:19;16.20;;;10.70;;
19396;SDS011;9834;48.076;11.878;2023-03-01T11:17:52;13.13;;;10.60;;
19396;SDS011;9834;48.076;11.878;2023-03-01T11:20:24;19.63;;;10.27;;
19396;SDS011;9834;48.076;11.878;2023-03-01T11:22:56;17.40;;;11.30;;
19396;SDS011;9834;48.076;11.878;2023-03-01T11:25:29;14.40;;;10.37;;
19396;SDS011;9834;48.076;11.878;2023-03-01T11:28:03;18.43;;;11.30;;
19396;SDS011;9834;48.076;11.878;2023-03-01T11:30:33;16.53;;;10.90;;
19396;SDS011;9834;48.076;11.878;2023-03-01T11:33:11;16.17;;;10.53;;
19396;SDS011;9834;48.076;11.878;2023-03-01T11:35:46;16.30;;;10.37;;
19396;SDS011;9834;48.076;11.878;2023-03-01T11:38:21;15.40;;;9.83;;
19396;SDS011;9834;48.076;11.878;2023-03-01T11:40:51;17.40;;;11.40;;
19396;SDS011;9834;48.076;11.878;2023-03-01T11:43:30;15.60;;;10.27;;
19396;SDS011;9834;48.076;11.878;2023-03-01T11:52:18;17.07;;;12.17;;
19396;SDS011;9834;48.076;11.878;2023-03-01T11:54:57;16.83;;;11.17;;
19396;SDS011;9834;48.076;11.878;2023-03-01T11:57:41;15.03;;;10.53;;
19396;SDS011;9834;48.076;11.878;2023-03-01T12:03:32;18.03;;;11.13;;
19396;SDS011;9834;48.076;11.878;2023-03-01T12:09:05;14.00;;;10.67;;
19396;SDS011;9834;48.076;11.878;2023-03-01T12:11:48;12.97;;;8.97;;
19396;SDS011;9834;48.076;11.878;2023-03-01T12:20:14;10.03;;;9.03;;
19396;SDS011;9834;48.076;11.878;2023-03-01T12:22:52;15.10;;;10.47;;
19396;SDS011;9834;48.076;11.878;2023-03-01T12:25:44;16.63;;;10.33;;
19396;SDS011;9834;48.076;11.878;2023-03-01T12:34:31;15.60;;;10.37;;
19396;SDS011;9834;48.076;11.878;2023-03-01T12:37:19;15.63;;;9.80;;
19396;SDS011;9834;48.076;11.878;2023-03-01T12:39:55;17.00;;;10.40;;
19396;SDS011;9834;48.076;11.878;2023-03-01T12:42:39;15.90;;;9.63;;
19396;SDS011;9834;48.076;11.878;2023-03-01T12:45:30;17.30;;;10.50;;
19396;SDS011;9834;48.076;11.878;2023-03-01T12:50:59;16.70;;;10.20;;
19396;SDS011;9834;48.076;11.878;2023-03-01T12:53:31;12.77;;;9.17;;
19396;SDS011;9834;48.076;11.878;2023-03-01T12:56:02;13.33;;;10.20;;
19396;SDS011;9834;48.076;11.878;2023-03-01T13:02:04;15.57;;;11.10;;
19396;SDS011;9834;48.076;11.878;2023-03-01T13:04:49;13.97;;;10.03;;
19396;SDS011;9834;48.076;11.878;2023-03-01T13:07:35;12.57;;;9.13;;
19396;SDS011;9834;48.076;11.878;2023-03-01T13:10:19;17.43;;;10.90;;
19396;SDS011;9834;48.076;11.878;2023-03-01T13:12:52;12.77;;;9.90;;
19396;SDS011;9834;48.076;11.878;2023-03-01T13:15:33;15.33;;;9.90;;
19396;SDS011;9834;48.076;11.878;2023-03-01T13:18:02;11.40;;;8.73;;
19396;SDS011;9834;48.076;11.878;2023-03-01T13:20:33;14.67;;;9.87;;
19396;SDS011;9834;48.076;11.878;2023-03-01T13:23:23;9.77;;;8.57;;
19396;SDS011;9834;48.076;11.878;2023-03-01T13:28:49;15.67;;;10.00;;
19396;SDS011;9834;48.076;11.878;2023-03-01T13:34:41;14.40;;;9.23;;
19396;SDS011;9834;48.076;11.878;2023-03-01T13:37:13;19.27;;;10.10;;
19396;SDS011;9834;48.076;11.878;2023-03-01T13:39:52;10.60;;;8.53;;
19396;SDS011;9834;48.076;11.878;2023-03-01T13:42:36;16.05;;;9.50;;
19396;SDS011;9834;48.076;11.878;2023-03-01T13:45:14;13.80;;;9.88;;
19396;SDS011;9834;48.076;11.878;2023-03-01T13:47:49;10.20;;;9.00;;
19396;SDS011;9834;48.076;11.878;2023-03-01T13:50:21;15.88;;;11.07;;
19396;SDS011;9834;48.076;11.878;2023-03-01T13:52:52;12.27;;;9.02;;
19396;SDS011;9834;48.076;11.878;2023-03-01T13:55:27;16.55;;;10.88;;
19396;SDS011;9834;48.076;11.878;2023-03-01T13:58:01;12.23;;;9.43;;
19396;SDS011;9834;48.076;11.878;2023-03-01T14:00:32;14.50;;;8.98;;
19396;SDS011;9834;48.076;11.878;2023-03-01T14:03:03;14.90;;;10.85;;
19396;SDS011;9834;48.076;11.878;2023-03-01T14:05:35;11.00;;;9.40;;
19396;SDS011;9834;48.076;11.878;2023-03-01T14:08:02;12.48;;;9.20;;
19396;SDS011;9834;48.076;11.878;2023-03-01T14:10:41;11.25;;;9.68;;
19396;SDS011;9834;48.076;11.878;2023-03-01T14:13:18;8.65;;;7.88;;
19396;SDS011;9834;48.076;11.878;2023-03-01T14:16:03;11.25;;;9.90;;
19396;SDS011;9834;48.076;11.878;2023-03-01T14:18:39;10.30;;;8.45;;
19396;SDS011;9834;48.076;11.878;2023-03-01T14:21:13;8.93;;;8.02;;
19396;SDS011;9834;48.076;11.878;2023-03-01T14:23:41;13.40;;;9.27;;
19396;SDS011;9834;48.076;11.878;2023-03-01T14:26:10;14.05;;;9.80;;
19396;SDS011;9834;48.076;11.878;2023-03-01T14:28:37;9.25;;;8.40;;
19396;SDS011;9834;48.076;11.878;2023-03-01T14:33:58;9.32;;;8.07;;
19396;SDS011;9834;48.076;11.878;2023-03-01T14:36:26;13.35;;;9.32;;
19396;SDS011;9834;48.076;11.878;2023-03-01T14:38:55;13.43;;;8.88;;
19396;SDS011;9834;48.076;11.878;2023-03-01T14:41:25;14.18;;;9.55;;
19396;SDS011;9834;48.076;11.878;2023-03-01T14:43:55;10.25;;;9.10;;
19396;SDS011;9834;48.076;11.878;2023-03-01T14:46:26;11.63;;;8.98;;
19396;SDS011;9834;48.076;11.878;2023-03-01T14:48:58;12.45;;;8.98;;
19396;SDS011;9834;48.076;11.878;2023-03-01T14:51:30;11.18;;;9.52;;
19396;SDS011;9834;48.076;11.878;2023-03-01T14:54:01;10.52;;;9.05;;
19396;SDS011;9834;48.076;11.878;2023-03-01T14:56:32;16.35;;;8.73;;
19396;SDS011;9834;48.076;11.878;2023-03-01T14:59:11;16.20;;;8.95;;
19396;SDS011;9834;48.076;11.878;2023-03-01T15:01:39;13.93;;;9.57;;
19396;SDS011;9834;48.076;11.878;2023-03-01T15:04:08;11.93;;;9.55;;
19396;SDS011;9834;48.076;11.878;2023-03-01T15:06:39;12.88;;;8.65;;
19396;SDS011;9834;48.076;11.878;2023-03-01T15:09:11;12.20;;;9.03;;
19396;SDS011;9834;48.076;11.878;2023-03-01T15:11:43;8.30;;;7.50;;
19396;SDS011;9834;48.076;11.878;2023-03-01T15:14:36;12.83;;;9.70;;
19396;SDS011;9834;48.076;11.878;2023-03-01T15:17:16;12.07;;;8.47;;
19396;SDS011;9834;48.076;11.878;2023-03-01T15:19:50;12.40;;;9.20;;
19396;SDS011;9834;48.076;11.878;2023-03-01T15:22:18;13.57;;;9.07;;
19396;SDS011;9834;48.076;11.878;2023-03-01T15:24:46;11.07;;;8.67;;
19396;SDS011;9834;48.076;11.878;2023-03-01T15:27:17;11.30;;;8.90;;